createdAt,value
2023-03-15T00:00:12.611Z,9.52
2023-03-15T00:03:04.201Z,12.03
2023-03-15T00:05:52.846Z,14.52
2023-03-15T00:08:41.086Z,15.18
2023-03-15T00:11:31.127Z,18.98
2023-03-15T00:14:19.444Z,16.02
2023-03-15T00:17:22.039Z,10.52
2023-03-15T00:20:15.486Z,11.77
2023-03-15T00:23:06.713Z,14.25
2023-03-15T00:25:55.908Z,11.15
2023-03-15T00:28:46.387Z,17.25
2023-03-15T00:31:36.197Z,14.05
2023-03-15T00:34:27.942Z,10.55
2023-03-15T00:37:20.046Z,17.45
2023-03-15T00:40:08.997Z,14.32
2023-03-15T00:42:58.067Z,14.00
2023-03-15T00:45:46.334Z,23.58
2023-03-15T00:48:37.813Z,9.23
2023-03-15T00:51:25.820Z,15.63
2023-03-15T00:54:14.027Z,14.55
2023-03-15T00:57:03.288Z,13.13
2023-03-15T00:59:53.315Z,23.10
2023-03-15T01:02:41.495Z,19.25
2023-03-15T01:05:29.382Z,11.82
2023-03-15T01:08:17.324Z,15.20
2023-03-15T01:11:08.320Z,16.25
2023-03-15T01:13:59.242Z,19.17
2023-03-15T01:16:47.155Z,11.27
2023-03-15T01:19:35.187Z,11.38
2023-03-15T01:22:23.467Z,16.23
2023-03-15T01:25:11.476Z,15.68
2023-03-15T01:27:59.501Z,14.48
2023-03-15T01:30:52.641Z,11.15
2023-03-15T01:33:40.607Z,9.43
2023-03-15T01:36:28.644Z,14.00
2023-03-15T01:39:16.778Z,11.60
2023-03-15T01:42:04.946Z,17.60
2023-03-15T01:45:04.436Z,13.23
2023-03-15T01:47:53.696Z,16.05
2023-03-15T01:50:42.153Z,16.92
2023-03-15T01:53:33.166Z,12.70
2023-03-15T01:56:22.953Z,12.70
2023-03-15T01:59:22.328Z,11.13
2023-03-15T02:02:14.845Z,18.58
2023-03-15T02:05:11.478Z,12.85
2023-03-15T02:08:00.110Z,14.52
2023-03-15T02:10:52.627Z,18.95
2023-03-15T02:13:41.489Z,16.27
2023-03-15T02:16:30.749Z,22.17
2023-03-15T02:19:34.201Z,8.07
2023-03-15T02:22:57.135Z,20.23
2023-03-15T02:26:01.998Z,19.38
2023-03-15T02:28:51.317Z,15.02
2023-03-15T02:31:41.790Z,20.75
2023-03-15T02:34:29.638Z,14.35
2023-03-15T02:37:18.207Z,17.27
2023-03-15T02:40:18.508Z,11.23
2023-03-15T02:43:16.991Z,10.32
2023-03-15T02:46:08.461Z,7.82
2023-03-15T02:48:56.876Z,9.38
2023-03-15T02:51:45.102Z,10.20
2023-03-15T02:54:36.708Z,10.20
2023-03-15T02:57:24.694Z,14.57
2023-03-15T03:00:14.589Z,13.93
2023-03-15T03:03:06.003Z,16.98
2023-03-15T03:05:53.799Z,13.20
2023-03-15T03:08:41.809Z,12.73
2023-03-15T03:11:29.879Z,10.25
2023-03-15T03:14:17.794Z,9.15
2023-03-15T03:17:05.688Z,17.65
2023-03-15T03:19:53.596Z,15.13
2023-03-15T03:22:42.286Z,12.90
2023-03-15T03:25:30.143Z,11.15
2023-03-15T03:28:18.104Z,12.32
2023-03-15T03:31:06.363Z,13.35
2023-03-15T03:33:56.798Z,12.35
2023-03-15T03:36:44.796Z,10.48
2023-03-15T03:39:32.873Z,16.08
2023-03-15T03:42:20.884Z,16.45
2023-03-15T03:45:09.459Z,12.98
2023-03-15T03:47:57.477Z,11.85
2023-03-15T03:50:45.340Z,13.77
2023-03-15T03:53:33.338Z,14.68
2023-03-15T03:56:21.390Z,13.43
2023-03-15T03:59:09.288Z,6.93
2023-03-15T04:01:57.105Z,12.52
2023-03-15T04:04:45.211Z,13.32
2023-03-15T04:07:33.162Z,10.95
2023-03-15T04:10:26.935Z,12.65
2023-03-15T04:16:04.012Z,17.45
2023-03-15T04:18:52.374Z,8.95
2023-03-15T04:21:47.176Z,9.27
2023-03-15T04:24:35.576Z,20.05
2023-03-15T04:27:23.511Z,12.55
2023-03-15T04:30:12.552Z,10.57
2023-03-15T04:33:00.641Z,12.07
2023-03-15T04:35:48.704Z,18.63
2023-03-15T04:38:36.938Z,17.50
2023-03-15T04:41:28.087Z,11.82
2023-03-15T04:44:18.251Z,37.90
2023-03-15T04:47:06.394Z,20.83
2023-03-15T04:49:56.467Z,13.23
2023-03-15T04:52:44.272Z,16.00
2023-03-15T04:55:32.530Z,17.25
2023-03-15T04:58:20.733Z,14.77
2023-03-15T05:01:08.789Z,14.77
2023-03-15T05:03:57.888Z,10.70
2023-03-15T05:06:45.878Z,12.77
2023-03-15T05:09:39.699Z,10.48
2023-03-15T05:12:28.906Z,11.38
2023-03-15T05:15:17.483Z,14.73
2023-03-15T05:18:05.451Z,12.38
2023-03-15T05:20:55.760Z,11.10
2023-03-15T05:23:43.702Z,14.13
2023-03-15T05:26:31.642Z,11.02
2023-03-15T05:29:19.951Z,10.02
2023-03-15T05:32:08.015Z,14.25
2023-03-15T05:34:56.102Z,18.52
2023-03-15T05:37:44.106Z,12.43
2023-03-15T05:40:33.183Z,18.38
2023-03-15T05:43:22.270Z,13.40
2023-03-15T05:46:10.754Z,11.70
2023-03-15T05:48:58.876Z,18.13
2023-03-15T05:51:46.791Z,23.02
2023-03-15T05:54:34.745Z,28.25
2023-03-15T05:57:22.707Z,24.48
2023-03-15T06:00:11.666Z,21.60
2023-03-15T06:02:59.807Z,27.15
2023-03-15T06:05:48.251Z,22.20
2023-03-15T06:08:36.171Z,16.38
2023-03-15T06:11:24.143Z,31.75
2023-03-15T06:14:12.122Z,37.20
2023-03-15T06:17:00.307Z,27.02
2023-03-15T06:19:48.896Z,32.13
2023-03-15T06:22:36.736Z,33.50
2023-03-15T06:25:24.783Z,25.90
2023-03-15T06:28:13.055Z,27.33
2023-03-15T06:31:08.549Z,31.48
2023-03-15T06:34:01.531Z,40.80
2023-03-15T06:37:01.826Z,18.08
2023-03-15T06:40:00.174Z,30.10
2023-03-15T06:42:55.070Z,31.45
2023-03-15T06:45:46.520Z,30.88
2023-03-15T06:48:54.032Z,27.48
2023-03-15T06:51:55.589Z,34.88
2023-03-15T06:54:49.261Z,30.15
2023-03-15T06:57:51.777Z,29.08
2023-03-15T07:00:41.409Z,22.30
2023-03-15T07:03:31.204Z,29.90
2023-03-15T07:06:22.830Z,35.75
2023-03-15T07:12:42.949Z,40.97
2023-03-15T07:15:31.413Z,28.83
2023-03-15T07:18:25.513Z,42.28
2023-03-15T07:21:13.734Z,31.35
2023-03-15T07:24:02.286Z,36.70
2023-03-15T07:26:54.832Z,37.63
2023-03-15T07:29:42.991Z,44.40
2023-03-15T07:32:40.221Z,33.70
2023-03-15T07:35:31.526Z,43.58
2023-03-15T07:38:41.377Z,40.38
2023-03-15T07:41:31.564Z,23.90
2023-03-15T07:44:53.793Z,37.42
2023-03-15T07:47:42.197Z,37.20
2023-03-15T07:50:30.730Z,30.48
2023-03-15T07:53:28.117Z,27.25
2023-03-15T07:56:21.764Z,28.98
2023-03-15T07:59:10.323Z,33.60
2023-03-15T08:02:00.837Z,32.95
2023-03-15T08:04:53.282Z,24.98
2023-03-15T08:07:54.258Z,27.48
2023-03-15T08:10:43.625Z,22.98
2023-03-15T08:14:22.785Z,24.02
2023-03-15T08:24:50.758Z,23.45
2023-03-15T08:27:40.332Z,25.75
2023-03-15T08:30:29.104Z,23.30
2023-03-15T08:33:20.602Z,22.60
2023-03-15T08:36:11.723Z,26.98
2023-03-15T08:39:09.264Z,24.08
2023-03-15T08:42:03.386Z,25.02
2023-03-15T08:44:54.285Z,21.05
2023-03-15T08:47:46.319Z,21.80
2023-03-15T08:50:34.410Z,24.25
2023-03-15T08:53:23.639Z,27.15
2023-03-15T08:56:12.758Z,22.67
2023-03-15T08:59:01.946Z,19.77
2023-03-15T09:01:50.704Z,13.93
2023-03-15T09:04:39.436Z,14.05
2023-03-15T09:07:27.912Z,14.70
2023-03-15T09:10:18.231Z,18.15
2023-03-15T09:13:06.622Z,13.80
2023-03-15T09:15:57.150Z,13.27
2023-03-15T09:18:54.809Z,14.00
2023-03-15T09:21:45.495Z,13.80
2023-03-15T09:24:33.933Z,16.15
2023-03-15T09:27:22.221Z,12.27
2023-03-15T09:30:13.702Z,15.93
2023-03-15T09:33:02.289Z,10.10
2023-03-15T09:35:53.800Z,7.95
2023-03-15T09:38:44.589Z,5.65
2023-03-15T09:41:48.735Z,7.25
2023-03-15T09:44:49.019Z,5.68
2023-03-15T09:48:11.949Z,6.05
2023-03-15T09:51:18.204Z,5.15
2023-03-15T09:54:41.317Z,5.38
2023-03-15T09:57:53.948Z,4.70
2023-03-15T10:01:08.562Z,5.63
2023-03-15T10:06:55.212Z,4.55
2023-03-15T10:09:44.633Z,6.38
2023-03-15T10:12:44.114Z,5.10
2023-03-15T10:16:08.451Z,5.32
2023-03-15T10:19:35.089Z,4.43
2023-03-15T10:22:52.179Z,4.07
2023-03-15T10:25:43.684Z,3.17
2023-03-15T10:28:34.860Z,2.38
2023-03-15T10:31:44.164Z,2.65
2023-03-15T10:34:33.408Z,2.70
2023-03-15T10:37:25.210Z,2.67
2023-03-15T10:40:18.292Z,2.20
2023-03-15T10:43:22.472Z,2.50
2023-03-15T10:46:13.430Z,3.20
2023-03-15T10:49:15.058Z,1.83
2023-03-15T10:52:07.018Z,1.90
2023-03-15T10:55:02.502Z,2.08
2023-03-15T10:57:57.137Z,1.70
2023-03-15T11:01:10.052Z,1.73
2023-03-15T11:04:33.130Z,2.42
2023-03-15T11:07:25.702Z,1.60
2023-03-15T11:10:26.472Z,2.45
2023-03-15T11:13:25.071Z,1.85
2023-03-15T11:16:13.194Z,1.35
2023-03-15T11:19:17.086Z,3.65
2023-03-15T11:22:05.434Z,2.05
2023-03-15T11:24:58.818Z,3.47
2023-03-15T11:27:54.038Z,1.65
2023-03-15T11:30:48.631Z,2.42
2023-03-15T11:34:01.682Z,3.25
2023-03-15T11:37:07.581Z,4.13
2023-03-15T11:40:16.731Z,3.88
2023-03-15T11:43:51.281Z,2.70
2023-03-15T11:46:49.105Z,5.60
2023-03-15T11:49:56.232Z,2.58
2023-03-15T11:52:50.709Z,5.47
2023-03-15T11:55:39.005Z,5.15
2023-03-15T11:58:47.175Z,5.10
2023-03-15T12:01:37.073Z,3.30
2023-03-15T12:04:31.878Z,4.00
2023-03-15T12:07:20.005Z,3.55
2023-03-15T12:10:32.336Z,3.53
2023-03-15T12:13:26.764Z,3.60
2023-03-15T12:16:14.970Z,4.13
2023-03-15T12:19:22.191Z,3.30
2023-03-15T12:22:20.780Z,3.10
2023-03-15T12:25:54.377Z,4.47
2023-03-15T12:33:07.929Z,3.33
2023-03-15T12:36:11.710Z,3.30
2023-03-15T12:39:26.115Z,5.53
2023-03-15T12:42:34.361Z,3.30
2023-03-15T12:45:37.558Z,4.15
2023-03-15T12:48:27.591Z,2.80
2023-03-15T12:51:58.172Z,2.60
2023-03-15T12:55:28.147Z,1.80
2023-03-15T12:58:30.624Z,4.45
2023-03-15T13:01:19.668Z,4.28
2023-03-15T13:04:31.142Z,3.25
2023-03-15T13:07:51.404Z,3.70
2023-03-15T13:11:06.689Z,1.40
2023-03-15T13:14:52.245Z,4.07
2023-03-15T13:20:55.939Z,2.58
2023-03-15T13:27:17.681Z,4.30
2023-03-15T13:30:42.758Z,3.00
2023-03-15T13:33:33.414Z,3.13
2023-03-15T13:36:55.988Z,2.08
2023-03-15T13:40:15.064Z,2.17
2023-03-15T13:43:27.777Z,2.35
2023-03-15T13:46:19.757Z,2.67
2023-03-15T13:49:12.715Z,3.90
2023-03-15T13:52:18.951Z,5.32
2023-03-15T13:55:08.512Z,3.20
2023-03-15T13:58:09.319Z,2.67
2023-03-15T14:01:02.614Z,3.45
2023-03-15T14:04:19.769Z,3.60
2023-03-15T14:07:39.809Z,5.00
2023-03-15T14:15:03.421Z,2.65
2023-03-15T14:18:01.213Z,4.00
2023-03-15T14:21:09.395Z,2.88
2023-03-15T14:24:06.975Z,2.17
2023-03-15T14:27:01.472Z,4.57
2023-03-15T14:30:02.368Z,1.95
2023-03-15T14:37:42.623Z,3.08
2023-03-15T14:40:40.543Z,3.45
2023-03-15T14:43:31.941Z,5.38
2023-03-15T14:46:26.331Z,2.15
2023-03-15T14:49:32.828Z,2.83
2023-03-15T14:52:36.814Z,2.50
2023-03-15T14:56:05.736Z,3.28
2023-03-15T14:59:24.712Z,3.92
2023-03-15T15:05:52.968Z,2.55
2023-03-15T15:08:46.102Z,3.30
2023-03-15T15:11:34.676Z,2.85
2023-03-15T15:14:23.289Z,4.88
2023-03-15T15:17:12.269Z,4.28
2023-03-15T15:20:14.545Z,3.78
2023-03-15T15:23:05.875Z,4.60
2023-03-15T15:26:05.629Z,3.08
2023-03-15T15:28:57.588Z,5.07
2023-03-15T15:31:49.865Z,4.38
2023-03-15T15:34:40.653Z,2.75
2023-03-15T15:37:29.357Z,3.55
2023-03-15T15:40:32.514Z,5.78
2023-03-15T15:43:21.398Z,3.67
2023-03-15T15:46:14.210Z,3.63
2023-03-15T15:49:04.526Z,4.10
2023-03-15T15:51:52.899Z,4.22
2023-03-15T15:54:41.112Z,3.63
2023-03-15T15:57:29.242Z,6.30
2023-03-15T16:00:21.969Z,3.58
2023-03-15T16:03:18.408Z,4.97
2023-03-15T16:06:07.647Z,5.57
2023-03-15T16:08:56.393Z,4.95
2023-03-15T16:11:44.865Z,6.32
2023-03-15T16:14:35.858Z,4.18
2023-03-15T16:17:31.667Z,5.95
2023-03-15T16:20:31.050Z,5.30
2023-03-15T16:23:26.488Z,5.00
2023-03-15T16:26:26.249Z,5.40
2023-03-15T16:29:27.036Z,4.00
2023-03-15T16:32:43.567Z,3.58
2023-03-15T16:35:44.281Z,6.60
2023-03-15T16:38:42.975Z,5.68
2023-03-15T16:44:59.624Z,7.65
2023-03-15T16:49:15.383Z,6.68
2023-03-15T16:57:35.786Z,4.82
2023-03-15T17:00:25.646Z,11.70
2023-03-15T17:03:18.541Z,5.63
2023-03-15T17:06:23.606Z,4.60
2023-03-15T17:09:23.639Z,6.22
2023-03-15T17:12:32.087Z,6.63
2023-03-15T17:15:27.683Z,6.95
2023-03-15T17:18:22.171Z,6.43
2023-03-15T17:21:17.064Z,5.47
2023-03-15T17:24:12.983Z,7.38
2023-03-15T17:27:01.293Z,9.23
2023-03-15T17:29:49.576Z,9.13
2023-03-15T17:32:37.651Z,4.55
2023-03-15T17:35:41.359Z,5.05
2023-03-15T17:38:33.016Z,4.80
2023-03-15T17:41:25.466Z,5.85
2023-03-15T17:44:14.024Z,7.18
2023-03-15T17:47:06.310Z,4.80
2023-03-15T17:49:55.345Z,6.07
2023-03-15T17:52:45.075Z,8.85
2023-03-15T17:55:37.638Z,4.88
2023-03-15T17:58:27.796Z,6.85
2023-03-15T18:01:22.782Z,6.32
2023-03-15T18:04:15.164Z,6.20
2023-03-15T18:07:03.481Z,8.73
2023-03-15T18:09:51.709Z,11.32
2023-03-15T18:12:41.619Z,6.93
2023-03-15T18:15:32.735Z,6.90
2023-03-15T18:18:21.862Z,9.40
2023-03-15T18:21:22.735Z,5.78
2023-03-15T18:24:14.655Z,8.77
2023-03-15T18:27:03.191Z,11.43
2023-03-15T18:29:52.771Z,12.45
2023-03-15T18:32:41.203Z,5.85
2023-03-15T18:35:33.892Z,8.93
2023-03-15T18:38:22.796Z,8.00
2023-03-15T18:41:21.624Z,8.40
2023-03-15T18:44:10.914Z,11.00
2023-03-15T18:46:59.203Z,10.75
2023-03-15T18:49:47.581Z,8.30
2023-03-15T18:52:36.647Z,11.45
2023-03-15T18:58:32.094Z,7.30
2023-03-15T19:01:23.238Z,10.35
2023-03-15T19:04:11.546Z,7.32
2023-03-15T19:06:59.798Z,11.90
2023-03-15T19:09:52.465Z,8.38
2023-03-15T19:12:41.932Z,12.95
2023-03-15T19:15:29.710Z,18.42
2023-03-15T19:18:20.458Z,12.73
2023-03-15T19:21:08.719Z,16.92
2023-03-15T19:24:09.652Z,12.48
2023-03-15T19:26:59.698Z,21.63
2023-03-15T19:32:51.078Z,17.48
2023-03-15T19:38:49.415Z,19.40
2023-03-15T19:41:39.968Z,15.48
2023-03-15T19:47:30.566Z,15.13
2023-03-15T19:50:18.775Z,19.88
2023-03-15T19:53:06.827Z,17.65
2023-03-15T19:55:55.527Z,13.57
2023-03-15T19:58:44.113Z,18.50
2023-03-15T20:01:33.333Z,15.70
2023-03-15T20:04:21.602Z,13.20
2023-03-15T20:07:11.200Z,16.08
2023-03-15T20:09:59.409Z,15.52
2023-03-15T20:12:48.088Z,21.58
2023-03-15T20:15:39.071Z,16.05
2023-03-15T20:18:26.925Z,16.88
2023-03-15T20:21:15.128Z,17.65
2023-03-15T20:24:04.083Z,15.60
2023-03-15T20:26:53.205Z,12.57
2023-03-15T20:29:41.265Z,17.58
2023-03-15T20:32:44.600Z,13.40
2023-03-15T20:35:36.052Z,10.00
2023-03-15T20:38:34.746Z,10.38
2023-03-15T20:41:26.270Z,12.02
2023-03-15T20:44:22.209Z,18.15
2023-03-15T20:47:11.329Z,17.70
2023-03-15T20:50:03.927Z,12.10
2023-03-15T20:52:51.838Z,13.55
2023-03-15T20:55:39.893Z,14.60
2023-03-15T20:58:28.338Z,15.27
2023-03-15T21:01:17.461Z,10.32
2023-03-15T21:04:08.565Z,10.73
2023-03-15T21:06:56.629Z,19.63
2023-03-15T21:09:45.687Z,13.02
2023-03-15T21:12:36.968Z,13.07
2023-03-15T21:15:24.872Z,9.40
2023-03-15T21:22:02.212Z,11.38
2023-03-15T21:24:55.856Z,9.68
2023-03-15T21:27:45.808Z,11.25
2023-03-15T21:30:36.397Z,13.75
2023-03-15T21:33:35.061Z,14.20
2023-03-15T21:36:26.118Z,14.32
2023-03-15T21:39:20.808Z,14.23
2023-03-15T21:42:09.629Z,18.58
2023-03-15T21:45:02.985Z,20.67
2023-03-15T21:47:52.990Z,16.65
2023-03-15T21:50:41.596Z,21.00
2023-03-15T21:53:33.389Z,16.80
2023-03-15T21:56:26.276Z,18.83
2023-03-15T21:59:16.204Z,17.47
2023-03-15T22:02:08.633Z,22.98
2023-03-15T22:04:56.981Z,21.33
2023-03-15T22:07:46.737Z,26.95
2023-03-15T22:10:34.974Z,22.10
2023-03-15T22:13:23.490Z,22.98
2023-03-15T22:16:13.693Z,24.30
2023-03-15T22:19:03.479Z,24.02
2023-03-15T22:21:51.604Z,30.52
2023-03-15T22:24:39.927Z,19.73
2023-03-15T22:27:27.774Z,23.25
2023-03-15T22:30:17.729Z,22.20
2023-03-15T22:33:05.752Z,20.52
2023-03-15T22:36:00.523Z,22.90
2023-03-15T22:38:50.304Z,18.33
2023-03-15T22:41:38.283Z,15.30
2023-03-15T22:44:27.169Z,18.58
2023-03-15T22:47:17.402Z,15.60
2023-03-15T22:50:05.815Z,12.60
2023-03-15T22:52:57.839Z,14.75
2023-03-15T22:55:49.469Z,15.15
2023-03-15T22:58:38.609Z,14.93
2023-03-15T23:01:26.710Z,13.15
2023-03-15T23:04:14.674Z,12.15
2023-03-15T23:07:03.243Z,13.85
2023-03-15T23:09:52.087Z,15.40
2023-03-15T23:12:40.577Z,12.00
2023-03-15T23:15:29.579Z,17.83
2023-03-15T23:18:19.122Z,21.73
2023-03-15T23:21:14.541Z,18.88
2023-03-15T23:27:06.172Z,16.73
2023-03-15T23:29:55.495Z,16.20
2023-03-15T23:32:44.428Z,14.13
2023-03-15T23:35:32.577Z,15.82
2023-03-15T23:38:20.790Z,15.05
2023-03-15T23:41:09.103Z,14.40
2023-03-15T23:43:57.268Z,14.90
2023-03-15T23:46:45.321Z,15.23
2023-03-15T23:49:34.140Z,14.85
2023-03-15T23:52:25.395Z,16.67
2023-03-15T23:55:16.712Z,13.38
2023-03-15T23:58:11.084Z,17.80
